Feeding Hills, Massachusetts
Current Conditions -  °F | °C
As of 6:25 AM on Thursday 23 Oct 2014 (Local Time) from KBAF Reporting Station
Light Rain Light Rain  
Wind Chill: 50°   Ceiling: 2900
Heat Index: 50°   Visibility: 8mi
Dew Point: 47°   Wind: 15mph
Humidity: 89%   Direction: 30°NNE
Pressure: 29.72"   Gusts: 32mph
Location:  42.07°N, 72.68°W
Report Text: KBAF 231025Z 03013G28KT 8SM -RA SCT011 BKN029 OVC035 10/08 A2972 RMK AO2 PK WND 35032/0959 P0009 T01000083
Loading
Personal Weather Stations






























Interactive Weather Map
Tropical Storm Tracking
New forecast layout! Learn more

10-Day Weather Forecast

Advertisements
Track Severe Weather on mobile